createdAt,value
2019-04-27T00:01:33.580Z,42.27
2019-04-27T00:04:23.570Z,42.27
2019-04-27T00:06:55.412Z,42.22
2019-04-27T00:09:36.628Z,42.14
2019-04-27T00:12:08.246Z,42.10
2019-04-27T00:14:37.663Z,42.05
2019-04-27T00:17:45.401Z,41.97
2019-04-27T00:20:27.723Z,41.85
2019-04-27T00:23:04.669Z,41.81
2019-04-27T00:25:33.943Z,41.72
2019-04-27T00:28:03.863Z,41.62
2019-04-27T00:30:35.713Z,41.49
2019-04-27T00:33:05.363Z,41.38
2019-04-27T00:35:49.815Z,41.30
2019-04-27T00:38:37.999Z,41.24
2019-04-27T00:41:09.968Z,41.19
2019-04-27T00:43:39.247Z,41.12
2019-04-27T00:46:08.556Z,41.12
2019-04-27T00:48:37.827Z,40.99
2019-04-27T00:51:07.145Z,40.92
2019-04-27T00:53:37.819Z,40.80
2019-04-27T00:56:25.303Z,40.69
2019-04-27T00:59:15.029Z,40.63
2019-04-27T01:01:53.590Z,40.57
2019-04-27T01:04:25.227Z,40.59
2019-04-27T01:06:54.563Z,40.67
2019-04-27T01:09:24.168Z,40.67
2019-04-27T01:11:53.519Z,40.70
2019-04-27T01:14:23.131Z,40.80
2019-04-27T01:16:54.650Z,40.76
2019-04-27T01:19:23.870Z,40.76
2019-04-27T01:21:53.120Z,40.73
2019-04-27T01:24:22.327Z,40.74
2019-04-27T01:27:19.243Z,40.66
2019-04-27T01:29:49.983Z,40.61
2019-04-27T01:32:20.733Z,40.56
2019-04-27T01:34:50.183Z,40.52
2019-04-27T01:37:21.117Z,40.46
2019-04-27T01:39:50.547Z,40.38
2019-04-27T01:42:19.815Z,40.29
2019-04-27T01:44:50.881Z,40.15
2019-04-27T01:47:19.931Z,40.14
2019-04-27T01:49:49.584Z,40.04
2019-04-27T01:52:19.417Z,40.09
2019-04-27T01:54:49.522Z,39.97
2019-04-27T01:57:19.449Z,39.93
2019-04-27T01:59:49.031Z,39.91
2019-04-27T02:02:31.886Z,39.86
2019-04-27T02:05:19.179Z,39.82
2019-04-27T02:07:49.124Z,39.73
2019-04-27T02:10:19.124Z,39.61
2019-04-27T02:12:48.737Z,39.65
2019-04-27T02:15:19.159Z,39.70
2019-04-27T02:17:51.018Z,39.75
2019-04-27T02:20:20.413Z,39.74
2019-04-27T02:22:50.718Z,39.80
2019-04-27T02:25:21.150Z,39.85
2019-04-27T02:27:56.285Z,39.79
2019-04-27T02:30:43.073Z,39.79
2019-04-27T02:33:40.465Z,39.92
2019-04-27T02:36:14.799Z,39.90
2019-04-27T02:38:41.746Z,39.93
2019-04-27T02:41:10.941Z,39.92
2019-04-27T02:44:04.951Z,39.93
2019-04-27T02:46:34.231Z,39.97
2019-04-27T02:49:06.933Z,40.12
2019-04-27T02:52:12.849Z,40.10
2019-04-27T02:54:42.065Z,40.15
2019-04-27T02:57:11.277Z,40.26
2019-04-27T02:59:40.488Z,40.10
2019-04-27T03:02:36.715Z,39.88
2019-04-27T03:05:06.509Z,40.23
2019-04-27T03:07:35.778Z,40.33
2019-04-27T03:10:05.612Z,40.42
2019-04-27T03:12:42.339Z,40.46
2019-04-27T03:15:23.515Z,40.29
2019-04-27T03:18:03.843Z,40.14
2019-04-27T03:21:00.382Z,40.18
2019-04-27T03:23:30.440Z,40.34
2019-04-27T03:26:13.707Z,40.44
2019-04-27T03:28:42.900Z,40.52
2019-04-27T03:31:13.894Z,40.61
2019-04-27T03:33:43.968Z,40.65
2019-04-27T03:36:14.268Z,40.69
2019-04-27T03:38:43.468Z,40.75
2019-04-27T03:41:12.714Z,40.77
2019-04-27T03:43:44.084Z,40.82
2019-04-27T03:46:13.405Z,40.84
2019-04-27T03:48:42.627Z,40.92
2019-04-27T03:51:40.353Z,40.95
2019-04-27T03:54:22.235Z,40.99
2019-04-27T03:56:55.348Z,41.00
2019-04-27T03:59:32.655Z,41.08
2019-04-27T04:02:02.468Z,41.09
2019-04-27T04:04:32.806Z,41.11
2019-04-27T04:07:09.594Z,41.18
2019-04-27T04:09:40.614Z,41.21
2019-04-27T04:12:16.140Z,41.22
2019-04-27T04:14:45.404Z,41.25
2019-04-27T04:17:15.845Z,41.28
2019-04-27T04:19:56.821Z,41.30
2019-04-27T04:22:19.955Z,41.33
2019-04-27T04:24:50.631Z,41.37
2019-04-27T04:27:20.178Z,41.40
2019-04-27T04:29:49.472Z,41.43
2019-04-27T04:32:19.169Z,41.45
2019-04-27T04:34:50.242Z,41.46
2019-04-27T04:37:19.706Z,41.48
2019-04-27T04:39:53.085Z,41.43
2019-04-27T04:42:35.745Z,41.49
2019-04-27T04:45:30.397Z,41.18
2019-04-27T04:48:05.837Z,39.13
2019-04-27T04:50:35.304Z,39.50
2019-04-27T04:53:05.161Z,39.88
2019-04-27T04:55:34.491Z,39.74
2019-04-27T04:58:03.716Z,39.57
2019-04-27T05:00:32.965Z,39.31
2019-04-27T05:03:02.237Z,39.22
2019-04-27T05:05:31.702Z,39.33
2019-04-27T05:08:00.942Z,39.29
2019-04-27T05:10:31.277Z,39.29
2019-04-27T05:13:00.648Z,39.37
2019-04-27T05:15:30.103Z,39.61
2019-04-27T05:17:59.356Z,39.29
2019-04-27T05:20:39.674Z,39.23
2019-04-27T05:23:09.648Z,39.25
2019-04-27T05:25:40.017Z,39.00
2019-04-27T05:28:09.724Z,38.83
2019-04-27T05:30:39.549Z,38.87
2019-04-27T05:33:09.087Z,38.87
2019-04-27T05:35:38.757Z,38.90
2019-04-27T05:38:10.510Z,39.07
2019-04-27T05:40:37.003Z,39.39
2019-04-27T05:43:05.199Z,39.47
2019-04-27T05:45:53.158Z,39.59
2019-04-27T05:48:27.401Z,39.66
2019-04-27T05:50:58.811Z,39.73
2019-04-27T05:53:22.935Z,39.82
2019-04-27T05:55:52.235Z,39.88
2019-04-27T05:58:21.530Z,39.93
2019-04-27T06:00:50.727Z,39.96
2019-04-27T06:03:21.073Z,40.00
2019-04-27T06:05:50.331Z,40.03
2019-04-27T06:08:21.111Z,40.07
2019-04-27T06:10:50.499Z,40.10
2019-04-27T06:13:19.859Z,40.13
2019-04-27T06:15:50.005Z,40.16
2019-04-27T06:18:20.670Z,40.20
2019-04-27T06:20:54.958Z,40.24
2019-04-27T06:23:21.025Z,40.29
2019-04-27T06:25:50.545Z,40.33
2019-04-27T06:28:19.883Z,40.38
2019-04-27T06:30:49.261Z,40.39
2019-04-27T06:33:30.143Z,40.44
2019-04-27T06:35:49.609Z,40.45
2019-04-27T06:38:19.134Z,40.47
2019-04-27T06:40:49.005Z,40.52
2019-04-27T06:43:18.921Z,40.50
2019-04-27T06:45:48.835Z,40.54
2019-04-27T06:48:19.393Z,40.59
2019-04-27T06:50:50.212Z,40.59
2019-04-27T06:53:19.535Z,40.65
2019-04-27T06:55:49.743Z,40.66
2019-04-27T06:58:20.054Z,40.69
2019-04-27T07:00:49.764Z,40.74
2019-04-27T07:03:19.097Z,40.76
2019-04-27T07:05:49.408Z,40.76
2019-04-27T07:08:18.738Z,40.79
2019-04-27T07:10:49.104Z,40.81
2019-04-27T07:13:19.588Z,40.81
2019-04-27T07:15:49.025Z,40.85
2019-04-27T07:18:18.639Z,40.87
2019-04-27T07:20:48.515Z,40.89
2019-04-27T07:23:18.740Z,40.92
2019-04-27T07:25:48.858Z,40.93
2019-04-27T07:28:19.053Z,40.96
2019-04-27T07:30:48.820Z,40.98
2019-04-27T07:33:18.609Z,41.02
2019-04-27T07:35:49.041Z,41.04
2019-04-27T07:38:19.184Z,41.05
2019-04-27T07:40:48.943Z,41.06
2019-04-27T07:43:31.208Z,41.09
2019-04-27T07:46:00.779Z,41.10
2019-04-27T07:48:29.996Z,41.11
2019-04-27T07:50:59.312Z,41.13
2019-04-27T07:53:29.189Z,41.16
2019-04-27T07:55:59.281Z,41.17
2019-04-27T07:58:32.302Z,41.17
2019-04-27T08:01:01.576Z,41.19
2019-04-27T08:03:30.938Z,41.17
2019-04-27T08:06:00.220Z,41.19
2019-04-27T08:08:29.432Z,41.21
2019-04-27T08:10:59.500Z,41.22
2019-04-27T08:13:30.179Z,41.23
2019-04-27T08:15:59.392Z,41.25
2019-04-27T08:18:29.930Z,41.25
2019-04-27T08:20:59.167Z,41.26
2019-04-27T08:23:29.454Z,41.27
2019-04-27T08:25:59.492Z,41.27
2019-04-27T08:28:35.931Z,41.28
2019-04-27T08:31:10.551Z,41.27
2019-04-27T08:33:39.819Z,41.27
2019-04-27T08:36:10.026Z,41.28
2019-04-27T08:38:39.355Z,41.30
2019-04-27T08:41:09.027Z,41.27
2019-04-27T08:43:39.041Z,41.27
2019-04-27T08:46:09.498Z,41.27
2019-04-27T08:48:39.362Z,41.28
2019-04-27T08:51:09.551Z,41.25
2019-04-27T08:53:39.784Z,41.23
2019-04-27T08:56:09.386Z,41.24
2019-04-27T08:58:38.749Z,41.26
2019-04-27T09:01:10.261Z,41.23
2019-04-27T09:03:39.551Z,41.20
2019-04-27T09:06:10.211Z,41.23
2019-04-27T09:08:49.584Z,41.24
2019-04-27T09:11:33.981Z,41.21
2019-04-27T09:14:10.629Z,41.23
2019-04-27T09:17:09.491Z,41.22
2019-04-27T09:19:44.747Z,41.26
2019-04-27T09:22:16.548Z,41.27
2019-04-27T09:24:44.824Z,41.29
2019-04-27T09:27:14.937Z,41.28
2019-04-27T09:29:44.969Z,41.30
2019-04-27T09:32:14.191Z,41.30
2019-04-27T09:34:44.168Z,41.31
2019-04-27T09:37:13.435Z,41.30
2019-04-27T09:39:42.952Z,41.30
2019-04-27T09:42:13.290Z,41.30
2019-04-27T09:44:42.505Z,41.33
2019-04-27T09:47:11.775Z,41.29
2019-04-27T09:49:41.055Z,41.33
2019-04-27T09:52:23.294Z,41.33
2019-04-27T09:54:41.239Z,41.35
2019-04-27T09:57:10.448Z,41.35
2019-04-27T09:59:39.855Z,41.35
2019-04-27T10:02:09.246Z,41.33
2019-04-27T10:04:38.583Z,41.31
2019-04-27T10:07:07.787Z,41.33
2019-04-27T10:09:37.100Z,41.33
2019-04-27T10:12:07.523Z,41.33
2019-04-27T10:14:37.424Z,41.31
2019-04-27T10:17:06.679Z,41.33
2019-04-27T10:19:36.541Z,41.33
2019-04-27T10:22:05.939Z,41.36
2019-04-27T10:24:35.809Z,41.34
2019-04-27T10:27:07.627Z,41.36
2019-04-27T10:29:36.448Z,41.35
2019-04-27T10:32:06.330Z,41.37
2019-04-27T10:34:36.795Z,41.34
2019-04-27T10:37:06.248Z,41.35
2019-04-27T10:39:36.121Z,41.35
2019-04-27T10:42:06.745Z,41.37
2019-04-27T10:44:36.786Z,41.33
2019-04-27T10:47:06.138Z,41.34
2019-04-27T10:49:35.408Z,41.33
2019-04-27T10:52:05.851Z,41.31
2019-04-27T10:54:36.171Z,41.28
2019-04-27T10:57:06.088Z,41.29
2019-04-27T10:59:36.081Z,41.28
2019-04-27T11:02:05.565Z,41.30
2019-04-27T11:04:54.039Z,41.31
2019-04-27T11:07:26.052Z,41.32
2019-04-27T11:09:55.300Z,41.35
2019-04-27T11:12:24.575Z,41.37
2019-04-27T11:14:53.916Z,41.36
2019-04-27T11:17:23.212Z,41.38
2019-04-27T11:19:52.624Z,41.38
2019-04-27T11:22:21.950Z,41.37
2019-04-27T11:24:51.151Z,41.39
2019-04-27T11:27:20.739Z,41.41
2019-04-27T11:29:50.055Z,41.39
2019-04-27T11:32:19.372Z,41.43
2019-04-27T11:35:19.516Z,41.41
2019-04-27T11:37:49.801Z,41.44
2019-04-27T11:40:19.051Z,41.44
2019-04-27T11:42:48.404Z,41.40
2019-04-27T11:45:17.617Z,41.40
2019-04-27T11:47:46.890Z,41.38
2019-04-27T11:50:16.601Z,41.37
2019-04-27T11:52:45.977Z,41.29
2019-04-27T11:55:16.052Z,41.31
2019-04-27T11:57:47.091Z,41.33
2019-04-27T12:00:17.748Z,41.29
2019-04-27T12:02:46.151Z,41.28
2019-04-27T12:05:16.069Z,41.30
2019-04-27T12:07:47.454Z,41.27
2019-04-27T12:10:16.196Z,41.26
2019-04-27T12:12:46.345Z,41.31
2019-04-27T12:15:16.068Z,41.27
2019-04-27T12:17:46.057Z,41.27
2019-04-27T12:20:16.012Z,41.28
2019-04-27T12:22:46.321Z,41.29
2019-04-27T12:25:16.695Z,41.30
2019-04-27T12:28:23.137Z,41.29
2019-04-27T12:31:11.258Z,41.31
2019-04-27T12:33:40.685Z,41.35
2019-04-27T12:36:11.082Z,41.33
2019-04-27T12:38:40.301Z,41.35
2019-04-27T12:41:09.560Z,41.36
2019-04-27T12:43:38.898Z,41.38
2019-04-27T12:46:08.115Z,41.41
2019-04-27T12:48:37.835Z,41.39
2019-04-27T12:51:07.506Z,41.38
2019-04-27T12:53:56.051Z,41.40
2019-04-27T12:56:34.748Z,41.40
2019-04-27T12:59:14.196Z,41.38
2019-04-27T13:01:43.463Z,41.39
2019-04-27T13:04:12.671Z,41.34
2019-04-27T13:06:41.989Z,41.34
2019-04-27T13:09:11.187Z,41.27
2019-04-27T13:11:40.505Z,41.25
2019-04-27T13:14:09.760Z,41.30
2019-04-27T13:16:39.043Z,41.21
2019-04-27T13:19:08.320Z,41.19
2019-04-27T13:21:37.631Z,41.11
2019-04-27T13:24:07.123Z,41.15
2019-04-27T13:26:38.001Z,41.14
2019-04-27T13:29:07.375Z,41.19
2019-04-27T13:31:36.968Z,41.23
2019-04-27T13:34:07.282Z,41.22
2019-04-27T13:36:36.861Z,41.17
2019-04-27T13:39:06.863Z,41.15
2019-04-27T13:41:36.303Z,41.11
2019-04-27T13:44:06.551Z,41.16
2019-04-27T13:46:55.978Z,41.20
2019-04-27T13:49:46.016Z,41.21
2019-04-27T13:52:36.216Z,41.18
2019-04-27T13:55:05.865Z,41.21
2019-04-27T13:57:49.509Z,41.20
2019-04-27T14:00:07.240Z,41.24
2019-04-27T14:02:36.527Z,41.21
2019-04-27T14:05:05.795Z,41.21
2019-04-27T14:07:35.059Z,41.26
2019-04-27T14:10:04.583Z,41.20
2019-04-27T14:12:34.156Z,41.34
2019-04-27T14:15:03.636Z,41.33
2019-04-27T14:17:32.950Z,41.36
2019-04-27T14:20:02.169Z,41.30
2019-04-27T14:22:31.708Z,41.34
2019-04-27T14:25:00.945Z,41.32
2019-04-27T14:27:36.746Z,41.26
2019-04-27T14:30:08.961Z,41.29
2019-04-27T14:32:38.782Z,41.28
2019-04-27T14:35:08.465Z,41.32
2019-04-27T14:37:38.613Z,41.28
2019-04-27T14:40:08.641Z,41.30
2019-04-27T14:42:37.967Z,41.27
2019-04-27T14:45:08.969Z,41.24
2019-04-27T14:47:39.991Z,41.25
2019-04-27T14:50:09.464Z,41.23
2019-04-27T14:52:40.863Z,41.23
2019-04-27T14:55:11.372Z,41.26
2019-04-27T14:57:40.694Z,41.17
2019-04-27T15:00:12.227Z,41.21
2019-04-27T15:02:41.540Z,41.16
2019-04-27T15:05:10.799Z,41.34
2019-04-27T15:07:40.076Z,41.19
2019-04-27T15:10:09.342Z,41.14
2019-04-27T15:12:38.675Z,41.00
2019-04-27T15:15:07.923Z,40.95
2019-04-27T15:17:40.279Z,40.39
2019-04-27T15:20:13.456Z,40.61
2019-04-27T15:22:43.127Z,40.76
2019-04-27T15:25:15.262Z,40.48
2019-04-27T15:27:50.103Z,40.50
2019-04-27T15:30:25.616Z,40.60
2019-04-27T15:33:29.052Z,40.56
2019-04-27T15:36:04.443Z,40.72
2019-04-27T15:38:36.019Z,40.84
2019-04-27T15:41:15.439Z,40.79
2019-04-27T15:43:45.260Z,40.85
2019-04-27T15:46:14.836Z,40.83
2019-04-27T15:48:44.068Z,40.84
2019-04-27T15:51:17.493Z,40.83
2019-04-27T15:53:45.809Z,40.80
2019-04-27T15:56:15.119Z,40.72
2019-04-27T15:58:44.423Z,40.59
2019-04-27T16:01:13.750Z,40.49
2019-04-27T16:03:42.974Z,40.10
2019-04-27T16:06:12.223Z,39.70
2019-04-27T16:08:45.221Z,39.47
2019-04-27T16:11:16.653Z,38.77
2019-04-27T16:13:43.166Z,38.93
2019-04-27T16:16:12.416Z,38.92
2019-04-27T16:18:41.696Z,38.46
2019-04-27T16:21:11.952Z,38.32
2019-04-27T16:23:43.190Z,38.41
2019-04-27T16:26:14.877Z,38.43
2019-04-27T16:28:46.810Z,38.47
2019-04-27T16:31:13.863Z,38.50
2019-04-27T16:33:43.231Z,38.49
2019-04-27T16:36:12.568Z,38.64
2019-04-27T16:39:03.613Z,38.67
2019-04-27T16:41:36.924Z,38.71
2019-04-27T16:44:07.010Z,38.79
2019-04-27T16:46:39.437Z,38.83
2019-04-27T16:49:07.270Z,38.87
2019-04-27T16:51:40.180Z,38.91
2019-04-27T16:54:12.809Z,38.98
2019-04-27T16:56:39.700Z,39.00
2019-04-27T16:59:33.994Z,39.07
2019-04-27T17:01:46.105Z,39.18
2019-04-27T17:04:14.891Z,39.23
2019-04-27T17:06:45.906Z,39.26
2019-04-27T17:09:12.815Z,39.28
2019-04-27T17:11:43.913Z,39.35
2019-04-27T17:14:34.958Z,39.46
2019-04-27T17:17:10.682Z,39.48
2019-04-27T17:19:43.887Z,39.54
2019-04-27T17:22:14.782Z,39.61
2019-04-27T17:24:48.945Z,39.73
2019-04-27T17:27:22.811Z,39.72
2019-04-27T17:29:50.058Z,39.72
2019-04-27T17:32:38.875Z,39.83
2019-04-27T17:35:11.759Z,39.80
2019-04-27T17:37:39.200Z,39.80
2019-04-27T17:40:09.538Z,39.91
2019-04-27T17:42:38.904Z,39.92
2019-04-27T17:45:09.033Z,40.00
2019-04-27T17:47:38.884Z,40.04
2019-04-27T17:50:09.284Z,40.09
2019-04-27T17:52:39.821Z,40.15
2019-04-27T17:55:09.189Z,40.21
2019-04-27T17:57:39.127Z,40.22
2019-04-27T18:00:09.189Z,40.24
2019-04-27T18:02:42.410Z,40.26
2019-04-27T18:05:13.527Z,40.26
2019-04-27T18:07:44.195Z,40.29
2019-04-27T18:10:13.431Z,40.38
2019-04-27T18:12:44.546Z,40.47
2019-04-27T18:15:14.597Z,40.53
2019-04-27T18:17:50.075Z,40.52
2019-04-27T18:20:19.958Z,40.67
2019-04-27T18:22:52.529Z,40.67
2019-04-27T18:25:23.433Z,40.73
2019-04-27T18:28:02.254Z,40.75
2019-04-27T18:30:55.128Z,40.51
2019-04-27T18:33:24.508Z,40.51
2019-04-27T18:39:52.561Z,38.47
2019-04-27T18:42:18.149Z,40.86
2019-04-27T18:44:48.612Z,41.46
2019-04-27T18:47:18.091Z,41.72
2019-04-27T18:50:21.481Z,41.67
2019-04-27T18:52:54.586Z,41.95
2019-04-27T18:55:23.905Z,41.89
2019-04-27T18:57:54.457Z,42.16
2019-04-27T19:01:22.643Z,40.99
2019-04-27T19:03:11.227Z,41.17
2019-04-27T19:03:47.508Z,43.93
2019-04-27T19:04:23.655Z,40.94
2019-04-27T19:04:59.242Z,44.53
2019-04-27T19:05:40.172Z,40.84
2019-04-27T19:06:11.415Z,40.64
2019-04-27T19:06:46.726Z,40.83
2019-04-27T19:07:22.001Z,40.76
2019-04-27T19:07:57.180Z,40.62
2019-04-27T19:08:32.406Z,40.71
2019-04-27T19:09:08.392Z,40.77
2019-04-27T19:09:45.345Z,40.76
2019-04-27T19:10:20.663Z,40.44
2019-04-27T19:11:00.341Z,40.55
2019-04-27T19:11:38.266Z,40.53
2019-04-27T19:12:13.720Z,40.53
2019-04-27T19:12:48.978Z,40.49
2019-04-27T19:13:24.219Z,40.42
2019-04-27T19:14:01.552Z,40.33
2019-04-27T19:14:38.717Z,40.41
2019-04-27T19:15:13.962Z,40.26
2019-04-27T19:15:50.901Z,40.27
2019-04-27T19:16:26.137Z,40.24
2019-04-27T19:17:02.346Z,40.20
2019-04-27T19:17:38.698Z,40.52
2019-04-27T19:18:14.049Z,40.28
2019-04-27T19:18:49.287Z,40.08
2019-04-27T19:19:24.606Z,39.93
2019-04-27T19:19:59.837Z,39.77
2019-04-27T19:20:35.074Z,39.74
2019-04-27T19:21:11.354Z,39.71
2019-04-27T19:21:48.507Z,39.66
2019-04-27T19:24:55.010Z,39.71
2019-04-27T19:27:48.597Z,40.67
2019-04-27T19:30:35.397Z,39.43
2019-04-27T19:33:05.708Z,40.74
2019-04-27T19:35:37.870Z,40.14
2019-04-27T19:38:08.959Z,39.67
2019-04-27T19:40:39.265Z,40.17
2019-04-27T19:43:10.286Z,40.75
2019-04-27T19:45:40.741Z,40.51
2019-04-27T19:48:11.983Z,40.88
2019-04-27T19:50:42.189Z,41.23
2019-04-27T19:53:13.576Z,41.18
2019-04-27T19:55:50.924Z,41.53
2019-04-27T19:58:21.178Z,43.12
2019-04-27T20:01:09.656Z,41.80
2019-04-27T20:03:34.395Z,40.94
2019-04-27T20:06:04.639Z,40.96
2019-04-27T20:08:38.718Z,40.77
2019-04-27T20:11:08.978Z,40.77
2019-04-27T20:13:39.159Z,40.77
2019-04-27T20:16:10.820Z,40.78
2019-04-27T20:18:43.339Z,40.74
2019-04-27T20:21:13.691Z,40.75
2019-04-27T20:23:43.925Z,40.74
2019-04-27T20:26:14.143Z,40.71
2019-04-27T20:28:44.322Z,40.74
2019-04-27T20:31:14.630Z,40.75
2019-04-27T20:33:44.799Z,40.74
2019-04-27T20:36:15.967Z,40.72
2019-04-27T20:38:46.396Z,40.65
2019-04-27T20:41:17.552Z,40.66
2019-04-27T20:43:47.950Z,40.65
2019-04-27T20:46:18.618Z,40.62
2019-04-27T20:48:48.867Z,40.64
2019-04-27T20:51:21.522Z,40.60
2019-04-27T20:53:53.438Z,40.60
2019-04-27T20:56:23.603Z,40.62
2019-04-27T20:58:53.818Z,40.61
2019-04-27T21:01:23.992Z,40.58
2019-04-27T21:03:57.250Z,40.58
2019-04-27T21:06:32.254Z,40.62
2019-04-27T21:09:03.071Z,40.64
2019-04-27T21:11:47.661Z,40.60
2019-04-27T21:14:17.884Z,40.65
2019-04-27T21:16:48.775Z,40.75
2019-04-27T21:19:20.920Z,40.75
2019-04-27T21:21:51.133Z,40.67
2019-04-27T21:24:22.810Z,40.58
2019-04-27T21:26:53.154Z,40.54
2019-04-27T21:29:24.433Z,40.53
2019-04-27T21:31:54.679Z,40.55
2019-04-27T21:34:24.872Z,40.52
2019-04-27T21:36:55.120Z,40.52
2019-04-27T21:39:25.298Z,40.52
2019-04-27T21:41:55.601Z,40.52
2019-04-27T21:44:26.830Z,40.53
2019-04-27T21:46:57.288Z,40.54
2019-04-27T21:49:27.707Z,40.56
2019-04-27T21:52:14.621Z,40.59
2019-04-27T21:54:45.812Z,40.58
2019-04-27T21:57:16.144Z,40.63
2019-04-27T21:59:46.410Z,40.67
2019-04-27T22:02:16.916Z,40.68
2019-04-27T22:04:47.366Z,40.68
2019-04-27T22:07:17.849Z,40.74
2019-04-27T22:09:48.362Z,40.65
2019-04-27T22:12:18.923Z,40.67
2019-04-27T22:14:50.913Z,40.68
2019-04-27T22:17:21.301Z,40.72
2019-04-27T22:19:52.964Z,40.74
2019-04-27T22:22:31.458Z,40.68
2019-04-27T22:25:11.616Z,40.65
2019-04-27T22:27:43.132Z,40.71
2019-04-27T22:30:13.573Z,40.64
2019-04-27T22:32:44.011Z,40.63
2019-04-27T22:35:14.202Z,40.68
2019-04-27T22:37:44.649Z,40.67
2019-04-27T22:40:41.886Z,40.74
2019-04-27T22:43:31.563Z,40.74
2019-04-27T22:46:08.536Z,40.84
2019-04-27T22:48:38.939Z,40.84
2019-04-27T22:51:09.379Z,40.91
2019-04-27T22:53:41.043Z,40.95
2019-04-27T22:56:15.657Z,40.98
2019-04-27T22:59:05.081Z,40.97
2019-04-27T23:02:03.713Z,40.92
2019-04-27T23:04:38.157Z,41.12
2019-04-27T23:07:08.374Z,41.08
2019-04-27T23:09:40.719Z,41.13
2019-04-27T23:12:12.003Z,41.11
2019-04-27T23:14:42.509Z,41.10
2019-04-27T23:17:26.134Z,41.14
2019-04-27T23:19:56.584Z,41.16
2019-04-27T23:22:27.160Z,41.18
2019-04-27T23:24:57.564Z,41.20
2019-04-27T23:27:27.913Z,41.23
2019-04-27T23:29:59.217Z,41.24
2019-04-27T23:32:36.629Z,41.27
2019-04-27T23:35:07.146Z,41.26
2019-04-27T23:37:37.506Z,41.28
2019-04-27T23:40:11.012Z,41.29
2019-04-27T23:42:41.749Z,41.32
2019-04-27T23:45:14.434Z,41.35
2019-04-27T23:47:44.721Z,41.32
2019-04-27T23:50:15.085Z,41.35
2019-04-27T23:53:03.217Z,41.33
2019-04-27T23:55:34.788Z,41.35
2019-04-27T23:58:06.232Z,41.35
